Time;durP1;ratioP1;P1;durP2;ratioP2;P2;SDS_P1;SDS_P2;PMS_P1;PMS_P2;Temp;Humidity;BMP_temperature;BMP_pressure;BME280_temperature;BME280_humidity;BME280_pressure;Samples;Min_cycle;Max_cycle;Signal;HPM_P1;HPM_P2
2022/07/26 00:00:32;;;;;;;14.38;3.00;;;18.50;99.90;;;;;;4998482;28;20042;-70
2022/07/26 00:02:58;;;;;;;14.25;3.22;;;18.50;99.90;;;;;;4998678;28;20084;-70
2022/07/26 00:05:24;;;;;;;15.63;3.30;;;18.40;99.90;;;;;;4998569;28;20050;-70
2022/07/26 00:07:49;;;;;;;12.70;3.70;;;18.40;99.90;;;;;;4998284;28;20054;-70
2022/07/26 00:10:15;;;;;;;7.53;2.58;;;18.30;99.90;;;;;;4998227;28;20046;-70
2022/07/26 00:12:41;;;;;;;9.35;3.08;;;18.20;99.90;;;;;;4998631;28;20049;-70
2022/07/26 00:15:09;;;;;;;8.65;2.33;;;18.20;99.90;;;;;;4998182;28;20082;-70
2022/07/26 00:17:35;;;;;;;9.18;2.92;;;18.10;99.90;;;;;;4999595;28;20046;-70
2022/07/26 00:20:03;;;;;;;8.50;2.67;;;18.10;99.90;;;;;;4998470;28;20042;-70
2022/07/26 00:22:34;;;;;;;5.28;1.70;;;18.00;99.90;;;;;;4982158;28;20555;-70
2022/07/26 00:25:06;;;;;;;5.47;2.10;;;17.90;99.90;;;;;;4981959;28;20128;-70
2022/07/26 00:27:35;;;;;;;5.45;1.70;;;17.90;99.90;;;;;;4996832;28;20570;-71
2022/07/26 00:30:04;;;;;;;4.43;1.40;;;17.80;99.90;;;;;;4997978;28;20499;-70
2022/07/26 00:32:30;;;;;;;8.02;1.90;;;17.70;99.90;;;;;;4998223;28;20042;-70
2022/07/26 00:34:55;;;;;;;4.03;1.60;;;17.70;99.90;;;;;;4996532;28;20469;-70
2022/07/26 00:37:21;;;;;;;4.50;1.50;;;17.70;99.90;;;;;;4978842;28;20046;-70
2022/07/26 00:39:48;;;;;;;5.32;1.55;;;17.70;99.90;;;;;;4996006;28;20085;-70
2022/07/26 00:42:14;;;;;;;4.07;1.52;;;17.70;99.90;;;;;;4996584;28;20122;-70
2022/07/26 00:44:41;;;;;;;5.25;1.60;;;17.70;99.90;;;;;;4995190;28;20437;-70
2022/07/26 00:47:07;;;;;;;3.42;1.55;;;17.70;99.90;;;;;;4994990;28;20125;-71
2022/07/26 00:49:34;;;;;;;2.45;1.35;;;17.70;99.90;;;;;;4978597;28;20121;-70
2022/07/26 00:51:59;;;;;;;2.97;1.30;;;17.70;99.90;;;;;;4994887;28;20485;-71
2022/07/26 00:54:25;;;;;;;4.60;2.20;;;17.70;99.90;;;;;;4995215;28;20133;-70
2022/07/26 00:56:52;;;;;;;2.92;1.80;;;17.70;99.90;;;;;;4993194;28;20030;-70
2022/07/26 00:59:18;;;;;;;4.68;1.88;;;17.60;99.90;;;;;;4995981;28;20559;-70
2022/07/26 01:01:44;;;;;;;4.32;2.17;;;17.60;99.90;;;;;;4995929;28;20497;-71
2022/07/26 01:04:10;;;;;;;4.95;2.00;;;17.50;99.90;;;;;;4978331;28;20057;-70
2022/07/26 01:06:36;;;;;;;5.38;2.20;;;17.50;99.90;;;;;;4994513;28;20053;-70
2022/07/26 01:09:04;;;;;;;4.28;1.98;;;17.40;99.90;;;;;;4994352;28;20062;-70
2022/07/26 01:11:30;;;;;;;7.88;2.03;;;17.40;99.90;;;;;;4994662;28;20133;-70
2022/07/26 01:13:57;;;;;;;6.82;2.13;;;17.40;99.90;;;;;;4994232;28;20488;-70
2022/07/26 01:16:24;;;;;;;4.53;2.50;;;17.40;99.90;;;;;;4994376;28;20034;-70
2022/07/26 01:18:50;;;;;;;3.92;2.40;;;17.40;99.90;;;;;;4994291;28;20195;-70
2022/07/26 01:21:16;;;;;;;6.63;2.53;;;17.50;99.90;;;;;;4978201;28;20120;-70
2022/07/26 01:23:43;;;;;;;5.13;2.92;;;17.50;99.90;;;;;;4978032;28;20121;-70
2022/07/26 01:26:09;;;;;;;5.13;2.22;;;17.50;99.90;;;;;;4978146;28;20041;-70
2022/07/26 01:28:36;;;;;;;5.22;2.42;;;17.60;99.90;;;;;;4992276;28;20101;-70
2022/07/26 01:31:04;;;;;;;4.28;2.40;;;17.60;99.90;;;;;;4993820;28;20049;-70
2022/07/26 01:33:30;;;;;;;3.88;1.92;;;17.70;99.90;;;;;;4993865;28;20054;-70
2022/07/26 01:35:56;;;;;;;5.35;2.72;;;17.70;99.90;;;;;;4977842;28;20050;-70
2022/07/26 01:38:21;;;;;;;4.00;2.20;;;17.70;99.90;;;;;;4993978;28;20073;-70
2022/07/26 01:40:47;;;;;;;3.78;2.15;;;17.70;99.90;;;;;;4993852;28;20125;-70
2022/07/26 01:43:13;;;;;;;6.88;3.35;;;17.80;99.90;;;;;;4995200;28;20113;-70
2022/07/26 01:45:39;;;;;;;6.95;2.58;;;17.70;99.90;;;;;;4994544;28;20054;-70
2022/07/26 01:48:05;;;;;;;5.53;2.38;;;17.80;99.90;;;;;;4993645;28;20043;-70
2022/07/26 01:50:31;;;;;;;10.75;3.22;;;17.80;99.90;;;;;;4977623;28;20046;-70
2022/07/26 01:52:57;;;;;;;6.40;2.97;;;17.80;99.90;;;;;;4977631;28;20168;-70
2022/07/26 01:55:23;;;;;;;9.48;3.53;;;17.80;99.90;;;;;;4993352;28;20430;-70
2022/07/26 01:57:49;;;;;;;9.85;4.10;;;17.80;99.90;;;;;;4991634;28;20117;-70
2022/07/26 02:00:15;;;;;;;7.90;3.92;;;17.80;99.90;;;;;;4994690;28;20050;-70
2022/07/26 02:02:41;;;;;;;8.02;3.92;;;17.70;99.90;;;;;;4993356;28;20053;-70
2022/07/26 02:05:07;;;;;;;8.02;3.70;;;17.80;99.90;;;;;;4994561;28;20054;-70
2022/07/26 02:07:39;;;;;;;6.60;4.22;;;17.80;99.90;;;;;;4990871;28;20057;-70
2022/07/26 02:10:06;;;;;;;7.85;4.07;;;17.70;99.90;;;;;;4957759;28;20579;-70
2022/07/26 02:12:32;;;;;;;7.97;3.70;;;17.80;99.90;;;;;;4954846;29;20069;-70
2022/07/26 02:14:59;;;;;;;10.93;4.20;;;17.80;99.90;;;;;;4957374;28;20493;-70
2022/07/26 02:17:25;;;;;;;7.60;3.83;;;17.80;99.90;;;;;;4974799;28;20054;-70
2022/07/26 02:19:51;;;;;;;9.48;3.55;;;17.80;99.90;;;;;;4957549;28;20100;-70
2022/07/26 02:22:18;;;;;;;5.97;4.13;;;17.80;99.90;;;;;;4957680;28;20049;-70
2022/07/26 02:24:46;;;;;;;5.53;3.25;;;17.80;99.90;;;;;;4957731;28;20082;-71
2022/07/26 02:27:12;;;;;;;9.70;3.95;;;17.80;99.90;;;;;;4956377;28;20046;-71
2022/07/26 02:29:38;;;;;;;9.48;3.65;;;17.80;99.90;;;;;;4957367;28;20711;-70
2022/07/26 02:32:05;;;;;;;4.78;3.20;;;17.80;99.90;;;;;;4974799;28;20046;-70
2022/07/26 02:34:31;;;;;;;10.55;3.80;;;17.80;99.90;;;;;;4974874;28;20379;-70
2022/07/26 02:36:57;;;;;;;7.78;3.80;;;17.80;99.90;;;;;;4974700;28;20039;-70
2022/07/26 02:39:26;;;;;;;11.45;3.97;;;17.80;99.90;;;;;;4964428;28;20450;-70
2022/07/26 02:41:57;;;;;;;7.50;3.90;;;17.80;99.90;;;;;;4960473;28;20046;-70
2022/07/26 02:44:24;;;;;;;19.80;5.70;;;17.80;99.90;;;;;;4976757;28;20400;-74
2022/07/26 02:46:51;;;;;;;21.30;4.90;;;17.80;99.90;;;;;;4976437;28;20145;-68
2022/07/26 02:49:17;;;;;;;7.63;3.95;;;17.80;99.90;;;;;;4993897;28;20046;-67
2022/07/26 02:51:43;;;;;;;5.57;2.60;;;17.70;99.90;;;;;;4976247;28;20047;-66
2022/07/26 02:54:09;;;;;;;5.25;2.70;;;17.50;99.90;;;;;;4975918;28;20100;-66
2022/07/26 02:56:35;;;;;;;7.80;3.42;;;17.40;99.90;;;;;;4975610;28;20042;-66
2022/07/26 02:59:01;;;;;;;11.93;4.38;;;17.30;99.90;;;;;;4973813;28;20489;-67
2022/07/26 03:01:27;;;;;;;8.20;3.97;;;17.20;99.90;;;;;;4993260;28;20043;-67
2022/07/26 03:03:52;;;;;;;7.50;4.05;;;17.10;99.90;;;;;;4959922;28;20042;-66
2022/07/26 03:06:19;;;;;;;10.23;4.50;;;17.10;99.90;;;;;;4960111;28;20038;-67
2022/07/26 03:08:45;;;;;;;13.98;4.93;;;17.00;99.90;;;;;;4975767;28;20054;-67
2022/07/26 03:11:11;;;;;;;13.55;4.53;;;17.00;99.90;;;;;;4975841;28;20046;-67
2022/07/26 03:13:37;;;;;;;12.70;4.82;;;17.00;99.90;;;;;;4976146;28;20041;-67
2022/07/26 03:16:03;;;;;;;10.32;4.40;;;16.90;99.90;;;;;;4975941;28;20397;-67
2022/07/26 03:18:29;;;;;;;12.27;4.40;;;16.90;99.90;;;;;;4960054;28;20365;-68
2022/07/26 03:20:55;;;;;;;15.48;5.40;;;16.90;99.90;;;;;;4975695;28;20052;-68
2022/07/26 03:23:21;;;;;;;10.70;3.63;;;16.90;99.90;;;;;;4976138;28;20042;-69
2022/07/26 03:25:47;;;;;;;11.63;4.95;;;16.90;99.90;;;;;;4975976;28;20527;-69
2022/07/26 03:28:12;;;;;;;12.90;4.70;;;16.90;99.90;;;;;;4957981;28;20078;-69
2022/07/26 03:30:38;;;;;;;10.05;4.35;;;16.90;99.90;;;;;;4976226;28;20050;-68
2022/07/26 03:33:04;;;;;;;16.38;4.40;;;16.80;99.90;;;;;;4993259;28;20382;-69
2022/07/26 03:35:30;;;;;;;12.23;3.90;;;16.80;99.90;;;;;;4975935;28;20048;-70
2022/07/26 03:37:56;;;;;;;9.77;4.15;;;16.80;99.90;;;;;;4959820;28;20045;-70
2022/07/26 03:40:22;;;;;;;7.88;3.35;;;16.70;99.90;;;;;;4975887;28;20093;-70
2022/07/26 03:42:48;;;;;;;14.32;4.03;;;16.70;99.90;;;;;;4993395;28;20035;-70
2022/07/26 03:45:15;;;;;;;8.30;2.95;;;16.70;99.90;;;;;;4993392;28;20050;-70
2022/07/26 03:47:41;;;;;;;9.60;3.20;;;16.60;99.90;;;;;;4976058;28;20500;-70
2022/07/26 03:50:08;;;;;;;10.48;3.17;;;16.50;99.90;;;;;;4975903;28;20386;-70
2022/07/26 03:52:34;;;;;;;9.30;3.08;;;16.50;99.90;;;;;;4993213;28;20046;-71
2022/07/26 03:55:00;;;;;;;11.10;2.63;;;16.50;99.90;;;;;;4975900;28;20118;-70
2022/07/26 03:57:25;;;;;;;11.05;3.35;;;16.50;99.90;;;;;;4974511;28;20046;-70
2022/07/26 03:59:51;;;;;;;10.75;3.35;;;16.40;99.90;;;;;;4993572;28;20039;-70
2022/07/26 04:02:17;;;;;;;10.90;3.05;;;16.40;99.90;;;;;;4959692;28;20045;-71
2022/07/26 04:04:43;;;;;;;12.25;2.65;;;16.40;99.90;;;;;;4975833;28;20050;-70
2022/07/26 04:07:09;;;;;;;9.52;3.58;;;16.40;99.90;;;;;;4975547;28;20046;-70
2022/07/26 04:09:35;;;;;;;7.85;2.50;;;16.40;99.90;;;;;;5014888;28;20062;-69
2022/07/26 04:12:01;;;;;;;10.05;2.28;;;16.40;99.90;;;;;;5016456;28;20044;-70
2022/07/26 04:14:27;;;;;;;7.97;2.65;;;16.30;99.90;;;;;;4998711;28;20475;-70
2022/07/26 04:16:52;;;;;;;10.20;2.60;;;16.30;99.90;;;;;;4998588;28;20046;-70
2022/07/26 04:19:18;;;;;;;9.93;2.80;;;16.40;99.90;;;;;;4999040;28;20096;-70
2022/07/26 04:21:44;;;;;;;10.82;2.53;;;16.30;99.90;;;;;;5016443;28;20069;-70
2022/07/26 04:24:10;;;;;;;9.23;2.17;;;16.30;99.90;;;;;;4998838;28;20523;-70
2022/07/26 04:26:36;;;;;;;8.55;2.20;;;16.40;99.90;;;;;;4998865;28;20054;-70
2022/07/26 04:29:02;;;;;;;7.75;2.17;;;16.40;99.90;;;;;;5015483;28;20049;-70
2022/07/26 04:31:28;;;;;;;11.95;2.60;;;16.30;99.90;;;;;;4998968;28;20045;-70
2022/07/26 04:33:53;;;;;;;10.48;2.58;;;16.40;99.90;;;;;;5016372;28;20046;-70
2022/07/26 04:36:19;;;;;;;9.32;2.60;;;16.40;99.90;;;;;;5016139;28;20049;-70
2022/07/26 04:38:45;;;;;;;9.23;1.95;;;16.40;99.90;;;;;;5016131;28;20042;-71
2022/07/26 04:41:11;;;;;;;9.32;1.95;;;16.40;99.90;;;;;;4998344;28;20484;-71
2022/07/26 04:43:37;;;;;;;9.80;1.90;;;16.40;99.90;;;;;;5015935;28;20042;-72
2022/07/26 04:46:03;;;;;;;11.45;3.55;;;16.40;99.90;;;;;;5016072;28;20056;-71
2022/07/26 04:48:29;;;;;;;14.73;2.20;;;16.40;99.90;;;;;;4998379;28;20049;-71
2022/07/26 04:50:55;;;;;;;7.57;1.90;;;16.40;99.90;;;;;;4998237;28;20056;-71
2022/07/26 04:53:20;;;;;;;7.07;1.80;;;16.40;99.90;;;;;;4998166;28;20037;-71
2022/07/26 04:55:46;;;;;;;11.43;2.13;;;16.40;99.90;;;;;;4997929;28;20499;-72
2022/07/26 04:58:12;;;;;;;8.70;1.80;;;16.40;99.90;;;;;;4995794;28;20045;-72
2022/07/26 05:00:38;;;;;;;8.50;2.05;;;16.40;99.90;;;;;;5015299;28;20033;-72
2022/07/26 05:03:04;;;;;;;9.18;1.60;;;16.40;99.90;;;;;;4981542;28;20038;-72
2022/07/26 05:05:31;;;;;;;10.63;1.90;;;16.30;99.90;;;;;;4981491;28;20045;-71
2022/07/26 05:07:59;;;;;;;8.40;1.48;;;16.30;99.90;;;;;;4997398;28;20128;-70
2022/07/26 05:10:31;;;;;;;6.57;1.38;;;16.30;99.90;;;;;;4997801;28;20403;-72
2022/07/26 05:12:57;;;;;;;6.43;1.30;;;16.20;99.90;;;;;;4981435;28;20373;-72
2022/07/26 05:15:23;;;;;;;11.15;1.85;;;16.20;99.90;;;;;;4997151;28;20049;-72
2022/07/26 05:17:49;;;;;;;8.48;1.67;;;16.20;99.90;;;;;;4997425;28;20053;-72
2022/07/26 05:20:16;;;;;;;8.75;1.92;;;16.20;99.90;;;;;;4996479;28;20042;-72
2022/07/26 05:22:45;;;;;;;10.23;1.80;;;16.30;99.90;;;;;;5014813;28;20041;-72
2022/07/26 05:25:11;;;;;;;5.25;1.13;;;16.30;99.90;;;;;;4980805;28;20099;-71
2022/07/26 05:27:39;;;;;;;6.22;1.40;;;16.30;99.90;;;;;;4979267;28;20120;-71
2022/07/26 05:30:05;;;;;;;6.93;1.30;;;16.20;99.90;;;;;;4997085;28;20046;-70
2022/07/26 05:32:31;;;;;;;6.18;1.75;;;16.20;99.90;;;;;;4996979;28;20494;-70
2022/07/26 05:34:57;;;;;;;5.90;1.42;;;16.10;99.90;;;;;;5014779;28;20038;-70
2022/07/26 05:37:23;;;;;;;7.72;1.27;;;16.10;99.90;;;;;;5014545;28;20546;-70
2022/07/26 05:39:48;;;;;;;5.38;1.40;;;16.10;99.90;;;;;;5004066;28;20034;-69
2022/07/26 05:42:14;;;;;;;6.55;1.20;;;16.00;99.90;;;;;;4995313;28;20050;-71
2022/07/26 05:44:40;;;;;;;6.38;1.23;;;16.00;99.90;;;;;;4977847;28;20049;-71
2022/07/26 05:47:06;;;;;;;5.13;1.50;;;16.00;99.90;;;;;;4977121;28;20121;-70
2022/07/26 05:49:32;;;;;;;6.65;1.48;;;16.00;99.90;;;;;;4977408;28;20038;-71
2022/07/26 05:51:58;;;;;;;8.63;1.30;;;16.00;99.90;;;;;;4994751;28;20121;-71
2022/07/26 05:54:24;;;;;;;7.50;1.58;;;16.00;99.90;;;;;;4994797;28;20125;-71
2022/07/26 05:56:50;;;;;;;4.80;1.48;;;16.00;99.90;;;;;;4976352;28;20412;-71
2022/07/26 05:59:15;;;;;;;5.55;1.48;;;16.10;99.90;;;;;;4976683;28;20042;-71
2022/07/26 06:01:41;;;;;;;6.00;1.00;;;16.10;99.90;;;;;;4977344;28;20532;-71
2022/07/26 06:04:09;;;;;;;7.32;1.10;;;16.20;99.90;;;;;;4977011;28;20050;-71
2022/07/26 06:06:34;;;;;;;7.07;1.33;;;16.20;99.90;;;;;;4994543;28;20089;-71
2022/07/26 06:09:00;;;;;;;5.50;1.58;;;16.20;99.90;;;;;;4976786;28;20437;-71
2022/07/26 06:11:26;;;;;;;8.02;1.25;;;16.30;99.90;;;;;;4977224;28;20129;-70
2022/07/26 06:13:52;;;;;;;4.75;1.25;;;16.30;99.90;;;;;;4960715;28;20141;-70
2022/07/26 06:16:18;;;;;;;6.88;1.30;;;16.30;99.90;;;;;;4977077;28;20042;-69
2022/07/26 06:18:44;;;;;;;4.25;1.67;;;16.40;99.90;;;;;;4975754;28;20511;-68
2022/07/26 06:21:10;;;;;;;5.43;1.73;;;16.40;99.90;;;;;;4979547;28;20048;-69
2022/07/26 06:23:36;;;;;;;6.28;0.93;;;16.40;99.90;;;;;;5013434;28;20415;-69
2022/07/26 06:26:03;;;;;;;6.15;1.02;;;16.30;99.90;;;;;;4996169;28;20046;-68
2022/07/26 06:28:29;;;;;;;7.85;1.13;;;16.20;99.90;;;;;;5012080;28;20455;-68
2022/07/26 06:30:55;;;;;;;4.10;0.70;;;16.10;99.90;;;;;;5013515;28;20542;-68
2022/07/26 06:33:21;;;;;;;6.53;1.15;;;16.00;99.90;;;;;;4996014;28;20116;-70
2022/07/26 06:35:46;;;;;;;2.53;0.80;;;16.00;99.90;;;;;;5013438;28;20535;-70
2022/07/26 06:38:13;;;;;;;4.93;1.20;;;15.90;99.90;;;;;;4995668;28;20049;-70
2022/07/26 06:40:38;;;;;;;6.28;0.90;;;15.90;99.90;;;;;;4996491;28;20069;-70
2022/07/26 06:43:04;;;;;;;8.32;1.20;;;16.00;99.90;;;;;;4976737;28;20074;-69
2022/07/26 06:45:30;;;;;;;8.70;1.10;;;16.10;99.90;;;;;;4993934;28;20492;-69
2022/07/26 06:47:56;;;;;;;6.53;1.10;;;16.20;99.90;;;;;;4993592;28;20496;-67
2022/07/26 06:50:22;;;;;;;7.18;1.10;;;16.30;99.90;;;;;;4993752;28;20043;-68
2022/07/26 06:52:48;;;;;;;4.15;1.00;;;16.40;99.90;;;;;;4976410;28;20133;-69
2022/07/26 06:55:14;;;;;;;2.90;0.80;;;16.50;99.90;;;;;;4976209;28;20125;-68
2022/07/26 06:57:40;;;;;;;6.35;0.93;;;16.80;99.90;;;;;;4974231;28;20092;-69
2022/07/26 07:00:07;;;;;;;4.18;0.80;;;17.00;99.90;;;;;;4976408;28;20042;-68
2022/07/26 07:02:34;;;;;;;4.97;1.08;;;17.10;99.90;;;;;;4976549;28;20037;-68
2022/07/26 07:05:00;;;;;;;6.00;1.00;;;17.20;99.90;;;;;;4976498;28;20401;-70
2022/07/26 07:07:26;;;;;;;3.38;0.60;;;17.20;99.90;;;;;;4976242;28;20050;-67
2022/07/26 07:09:52;;;;;;;3.30;0.75;;;17.10;99.90;;;;;;4976376;28;20559;-68
2022/07/26 07:12:18;;;;;;;3.20;0.70;;;16.90;99.90;;;;;;4976479;28;20038;-71
2022/07/26 07:14:44;;;;;;;2.95;0.77;;;16.80;99.90;;;;;;4976218;28;20517;-70
2022/07/26 07:17:10;;;;;;;3.85;0.70;;;16.70;99.90;;;;;;4976165;28;20042;-70
2022/07/26 07:19:37;;;;;;;6.55;1.10;;;16.70;99.90;;;;;;4993408;28;20053;-69
2022/07/26 07:22:03;;;;;;;3.72;0.90;;;16.80;99.90;;;;;;4975947;28;20392;-69
2022/07/26 07:24:29;;;;;;;4.35;0.90;;;16.80;99.90;;;;;;5004129;28;20132;-68
2022/07/26 07:26:55;;;;;;;5.18;1.00;;;16.90;99.90;;;;;;4976823;28;20130;-68
2022/07/26 07:29:21;;;;;;;7.65;1.10;;;17.00;99.90;;;;;;4994856;28;20041;-69
2022/07/26 07:31:47;;;;;;;6.65;1.52;;;17.10;99.90;;;;;;4995373;28;20499;-70
2022/07/26 07:34:14;;;;;;;6.28;1.40;;;17.20;99.90;;;;;;4995373;28;20049;-68
2022/07/26 07:36:40;;;;;;;4.80;1.45;;;17.30;99.90;;;;;;5012498;28;20076;-69
2022/07/26 07:39:06;;;;;;;6.25;1.20;;;17.40;99.90;;;;;;5012556;28;20062;-69
2022/07/26 07:41:33;;;;;;;2.97;0.65;;;17.40;99.90;;;;;;4991796;28;20560;-68
2022/07/26 07:44:02;;;;;;;4.32;0.98;;;17.50;99.90;;;;;;5004349;28;20033;-68
2022/07/26 07:46:27;;;;;;;5.57;0.82;;;17.60;99.90;;;;;;4999043;28;20125;-68
2022/07/26 07:48:55;;;;;;;6.05;1.13;;;17.70;99.90;;;;;;4998693;28;20121;-68
2022/07/26 07:51:20;;;;;;;3.65;0.60;;;17.80;99.90;;;;;;4996435;28;20046;-71
2022/07/26 07:53:46;;;;;;;5.38;1.40;;;18.00;99.90;;;;;;4997003;28;20038;-67
2022/07/26 07:56:12;;;;;;;6.38;1.05;;;17.90;99.90;;;;;;4979429;28;20042;-70
2022/07/26 07:58:38;;;;;;;7.10;1.08;;;17.60;99.90;;;;;;4977146;28;20050;-69
2022/07/26 08:01:04;;;;;;;5.95;1.40;;;17.30;99.90;;;;;;4996464;28;20039;-69
2022/07/26 08:03:30;;;;;;;5.07;1.10;;;17.10;99.90;;;;;;4996772;28;20045;-70
2022/07/26 08:05:56;;;;;;;5.57;1.00;;;16.90;99.90;;;;;;4996712;28;20112;-69
2022/07/26 08:08:22;;;;;;;7.75;1.52;;;16.80;99.90;;;;;;4979123;28;20058;-71
2022/07/26 08:10:48;;;;;;;5.78;0.93;;;16.90;99.90;;;;;;4979101;28;20169;-68
2022/07/26 08:13:13;;;;;;;5.18;0.80;;;17.00;99.90;;;;;;4979190;28;20057;-68
2022/07/26 08:15:39;;;;;;;3.50;0.60;;;17.20;99.90;;;;;;4979022;28;20053;-69
2022/07/26 08:18:05;;;;;;;7.90;1.02;;;17.30;99.90;;;;;;4978937;28;20511;-71
2022/07/26 08:20:31;;;;;;;2.90;0.63;;;17.50;99.90;;;;;;4978963;28;20145;-68
2022/07/26 08:22:57;;;;;;;4.45;0.98;;;17.70;99.90;;;;;;4979042;28;20039;-70
2022/07/26 08:25:22;;;;;;;6.65;1.75;;;17.70;99.90;;;;;;4979116;28;20046;-70
2022/07/26 08:27:48;;;;;;;7.20;0.90;;;17.70;99.90;;;;;;4976696;28;20046;-70
2022/07/26 08:30:15;;;;;;;5.78;0.88;;;18.00;99.90;;;;;;4996396;28;20085;-70
2022/07/26 08:32:40;;;;;;;9.32;1.27;;;18.40;99.90;;;;;;4996306;28;20046;-70
2022/07/26 08:35:07;;;;;;;6.25;1.20;;;18.80;99.90;;;;;;4978496;28;20046;-71
2022/07/26 08:37:33;;;;;;;4.70;1.20;;;19.00;99.90;;;;;;4978801;28;20080;-72
2022/07/26 08:39:59;;;;;;;7.78;1.52;;;19.00;99.90;;;;;;5007686;28;20046;-71
2022/07/26 08:42:25;;;;;;;7.95;1.90;;;19.10;99.90;;;;;;4998414;28;20052;-70
2022/07/26 08:44:51;;;;;;;7.45;1.70;;;19.30;99.90;;;;;;5015764;28;20113;-72
2022/07/26 08:47:19;;;;;;;9.27;1.10;;;19.60;99.90;;;;;;5015666;28;20615;-71
2022/07/26 08:49:45;;;;;;;8.27;1.65;;;19.70;99.90;;;;;;4998132;28;20042;-72
2022/07/26 08:52:13;;;;;;;7.75;3.08;;;19.60;99.90;;;;;;4981958;28;20044;-71
2022/07/26 08:54:47;;;;;;;8.52;1.27;;;19.40;99.90;;;;;;4996576;28;20045;-71
2022/07/26 08:57:13;;;;;;;10.13;1.83;;;19.40;99.90;;;;;;4995523;28;20073;-70
2022/07/26 08:59:39;;;;;;;7.43;1.63;;;19.40;99.90;;;;;;4997637;28;20045;-71
2022/07/26 09:02:11;;;;;;;5.05;1.10;;;19.20;99.90;;;;;;4997843;28;20049;-75
2022/07/26 09:04:39;;;;;;;7.32;1.30;;;19.00;99.90;;;;;;5015562;28;20045;-74
2022/07/26 09:07:07;;;;;;;6.18;1.42;;;19.20;99.90;;;;;;4981999;28;20046;-71
2022/07/26 09:09:36;;;;;;;7.47;1.65;;;19.40;99.90;;;;;;4979031;28;20054;-68
2022/07/26 09:12:17;;;;;;;3.65;1.15;;;19.70;99.90;;;;;;4995758;28;20435;-68
2022/07/26 09:14:45;;;;;;;4.78;1.30;;;19.90;99.90;;;;;;4995308;28;20097;-68
2022/07/26 09:17:11;;;;;;;7.20;1.30;;;20.20;99.90;;;;;;4977888;28;20081;-67
2022/07/26 09:19:37;;;;;;;8.02;1.33;;;20.30;99.90;;;;;;4961784;28;20046;-69
2022/07/26 09:22:10;;;;;;;4.60;1.40;;;20.40;99.90;;;;;;4995320;28;20038;-69
2022/07/26 09:24:40;;;;;;;8.02;1.50;;;20.80;99.90;;;;;;4977824;28;20563;-70
2022/07/26 09:27:09;;;;;;;7.45;1.77;;;20.80;99.90;;;;;;4976169;28;20098;-73
2022/07/26 09:29:50;;;;;;;6.78;1.77;;;20.40;99.90;;;;;;4978015;28;20504;-67
2022/07/26 09:32:20;;;;;;;9.15;2.15;;;20.00;99.90;;;;;;4977796;28;20492;-70
2022/07/26 09:35:20;;;;;;;8.63;1.83;;;19.70;99.90;;;;;;4995201;28;20042;-69
2022/07/26 09:37:47;;;;;;;12.35;1.50;;;19.50;99.90;;;;;;4977663;28;20050;-69
2022/07/26 09:40:15;;;;;;;9.07;2.00;;;19.30;99.90;;;;;;4977840;28;20038;-68
2022/07/26 09:43:01;;;;;;;8.93;1.52;;;19.00;99.90;;;;;;4977881;28;20049;-71
2022/07/26 09:45:28;;;;;;;9.15;1.80;;;18.70;99.90;;;;;;4995019;28;20046;-69
2022/07/26 09:47:54;;;;;;;10.00;2.40;;;18.40;99.90;;;;;;4977578;28;20049;-68
2022/07/26 09:50:24;;;;;;;12.05;2.35;;;18.20;99.90;;;;;;4977229;28;20046;-68
2022/07/26 09:53:02;;;;;;;7.88;1.95;;;18.20;99.90;;;;;;4995030;28;20403;-67
2022/07/26 09:55:30;;;;;;;10.23;2.20;;;18.10;99.90;;;;;;4976819;28;20481;-71
2022/07/26 09:57:58;;;;;;;10.77;2.58;;;18.20;99.90;;;;;;4975054;28;20054;-69
2022/07/26 10:00:25;;;;;;;14.27;2.75;;;18.30;99.90;;;;;;4976972;28;20042;-70
2022/07/26 10:02:54;;;;;;;10.75;2.42;;;18.50;99.90;;;;;;4977052;28;20129;-69
2022/07/26 10:05:20;;;;;;;6.72;2.28;;;18.70;99.90;;;;;;4969561;28;20045;-71
2022/07/26 10:07:48;;;;;;;8.95;2.15;;;18.90;99.90;;;;;;4970348;28;20054;-69
2022/07/26 10:10:29;;;;;;;15.27;2.65;;;19.00;99.90;;;;;;4960860;28;20050;-73
2022/07/26 10:12:56;;;;;;;6.45;1.92;;;19.20;99.90;;;;;;4996531;28;20049;-71
2022/07/26 10:15:38;;;;;;;9.88;2.22;;;19.40;99.90;;;;;;4980178;28;20690;-70
2022/07/26 10:18:07;;;;;;;8.70;1.85;;;19.30;99.90;;;;;;5014111;28;20096;-70
2022/07/26 10:20:39;;;;;;;7.88;2.00;;;19.00;99.90;;;;;;4996389;28;20069;-65
2022/07/26 10:23:39;;;;;;;9.88;1.80;;;18.80;99.90;;;;;;4996404;28;20129;-68
2022/07/26 10:26:08;;;;;;;9.80;2.13;;;18.50;99.90;;;;;;4996015;28;20041;-74
2022/07/26 10:28:35;;;;;;;6.13;1.50;;;18.30;99.90;;;;;;4994068;28;20042;-71
2022/07/26 10:31:19;;;;;;;9.05;1.40;;;18.10;99.90;;;;;;5013604;28;20271;-73
2022/07/26 10:33:50;;;;;;;9.80;1.95;;;18.00;99.90;;;;;;4996229;28;20049;-73
2022/07/26 10:36:23;;;;;;;7.63;2.20;;;18.00;99.90;;;;;;4995819;28;20111;-71
2022/07/26 10:39:04;;;;;;;8.70;1.77;;;18.00;99.90;;;;;;4977600;28;20030;-71
2022/07/26 10:41:36;;;;;;;7.88;1.63;;;18.10;99.90;;;;;;4976559;28;20045;-70
2022/07/26 10:44:24;;;;;;;6.07;2.28;;;18.20;99.90;;;;;;4993805;28;20042;-70
2022/07/26 10:47:00;;;;;;;7.05;1.40;;;18.20;99.90;;;;;;4976299;28;20042;-70
2022/07/26 10:49:29;;;;;;;6.07;1.65;;;18.30;99.90;;;;;;4976377;28;20436;-71
2022/07/26 10:52:26;;;;;;;8.07;1.73;;;18.50;99.90;;;;;;4976544;28;20386;-72
2022/07/26 10:55:03;;;;;;;7.20;1.95;;;18.60;99.90;;;;;;4974758;28;20337;-69
2022/07/26 10:57:35;;;;;;;7.22;1.65;;;18.60;99.90;;;;;;4991503;28;20539;-69
2022/07/26 11:00:06;;;;;;;6.63;1.42;;;18.60;99.90;;;;;;4976460;28;20042;-68
2022/07/26 11:02:32;;;;;;;6.63;1.63;;;18.60;99.90;;;;;;4993527;28;20042;-69
2022/07/26 11:05:11;;;;;;;4.97;1.20;;;18.70;99.90;;;;;;4993501;28;20046;-70
2022/07/26 11:07:47;;;;;;;9.37;1.53;;;19.00;99.90;;;;;;4975817;28;20062;-69
2022/07/26 11:10:13;;;;;;;7.20;1.48;;;19.30;99.90;;;;;;4976258;28;20074;-69
2022/07/26 11:12:40;;;;;;;8.63;1.75;;;19.40;99.90;;;;;;4993427;28;20054;-69
2022/07/26 11:15:15;;;;;;;4.95;1.27;;;19.70;99.90;;;;;;4975777;28;20051;-69
2022/07/26 11:17:41;;;;;;;5.32;1.35;;;19.80;99.90;;;;;;4975398;28;20052;-69
2022/07/26 11:20:07;;;;;;;12.50;1.90;;;19.80;99.90;;;;;;4993261;28;20617;-70
2022/07/26 11:22:34;;;;;;;5.70;1.20;;;19.80;99.90;;;;;;4975980;28;20049;-70
2022/07/26 11:25:01;;;;;;;7.43;1.40;;;19.70;99.90;;;;;;4975825;28;20049;-70
2022/07/26 11:27:27;;;;;;;3.25;1.17;;;19.60;99.90;;;;;;4991032;28;20742;-70
2022/07/26 11:29:53;;;;;;;5.88;1.17;;;19.60;99.90;;;;;;4975952;28;20089;-68
2022/07/26 11:32:21;;;;;;;6.90;1.58;;;19.60;99.90;;;;;;4975741;28;20078;-67
2022/07/26 11:34:59;;;;;;;7.80;1.42;;;19.60;99.90;;;;;;4993486;28;20085;-67
2022/07/26 11:37:24;;;;;;;9.27;1.85;;;19.70;99.90;;;;;;4993201;28;20489;-67
2022/07/26 11:39:51;;;;;;;7.75;1.30;;;19.80;99.90;;;;;;4965451;28;20039;-67
2022/07/26 11:42:20;;;;;;;6.05;1.73;;;20.00;99.90;;;;;;4956807;28;20035;-69
2022/07/26 11:44:47;;;;;;;6.10;1.60;;;20.10;99.90;;;;;;4973713;28;20458;-68
2022/07/26 11:47:19;;;;;;;7.03;1.35;;;20.10;99.90;;;;;;4956804;28;20086;-69
2022/07/26 11:49:45;;;;;;;7.15;2.08;;;20.00;99.90;;;;;;4956398;28;20047;-67
2022/07/26 11:52:12;;;;;;;6.85;1.30;;;19.90;99.90;;;;;;4956521;28;20043;-70
2022/07/26 11:54:48;;;;;;;7.00;1.20;;;19.90;99.90;;;;;;4956369;28;20559;-70
2022/07/26 11:57:16;;;;;;;6.68;1.30;;;19.90;99.90;;;;;;4954864;28;20039;-73
2022/07/26 11:59:44;;;;;;;5.95;1.00;;;20.10;99.90;;;;;;4956270;28;20129;-73
2022/07/26 12:02:11;;;;;;;5.25;0.90;;;20.20;99.90;;;;;;4973525;28;20038;-71
2022/07/26 12:04:39;;;;;;;4.57;0.90;;;20.10;99.90;;;;;;4956124;28;20043;-71
2022/07/26 12:07:17;;;;;;;5.07;1.05;;;20.10;99.90;;;;;;4956395;28;20414;-72
2022/07/26 12:09:49;;;;;;;3.97;1.10;;;20.00;99.90;;;;;;4973483;28;20162;-72
2022/07/26 12:12:27;;;;;;;3.92;1.08;;;19.90;99.90;;;;;;4973393;28;20047;-73
2022/07/26 12:15:00;;;;;;;4.75;1.10;;;19.90;99.90;;;;;;4955996;28;20485;-71
2022/07/26 12:17:27;;;;;;;4.20;1.25;;;20.10;99.90;;;;;;4973281;28;20137;-74
2022/07/26 12:19:53;;;;;;;5.63;1.73;;;20.20;99.90;;;;;;4956034;28;20125;-73
2022/07/26 12:22:21;;;;;;;4.15;1.05;;;20.30;99.90;;;;;;4955964;28;20085;-72
2022/07/26 12:24:50;;;;;;;5.78;1.50;;;20.40;99.90;;;;;;4973585;28;20044;-72
2022/07/26 12:27:32;;;;;;;5.68;1.33;;;20.40;99.90;;;;;;4971343;28;20417;-70
2022/07/26 12:30:01;;;;;;;6.32;1.40;;;20.40;99.90;;;;;;4958029;28;20043;-70
2022/07/26 12:32:33;;;;;;;3.08;0.95;;;20.40;99.90;;;;;;4943675;28;20053;-70
2022/07/26 12:34:59;;;;;;;4.68;1.13;;;20.30;99.90;;;;;;4959419;28;20039;-69
2022/07/26 12:37:29;;;;;;;5.95;1.33;;;20.30;99.90;;;;;;4976984;28;20067;-70
2022/07/26 12:40:17;;;;;;;4.63;1.23;;;20.30;99.90;;;;;;4970507;28;20452;-72
2022/07/26 12:42:49;;;;;;;6.13;1.20;;;20.10;99.90;;;;;;4978602;28;20089;-72
2022/07/26 12:45:18;;;;;;;6.35;1.92;;;20.10;99.90;;;;;;4978674;28;20108;-69
2022/07/26 12:47:46;;;;;;;4.88;1.15;;;20.20;99.90;;;;;;4978810;28;20039;-70